Time,TemperatureF,DewpointF,PressureIn,WindDirection,WindDirectionDegrees,WindSpeedMPH,WindSpeedGustMPH,Humidity,HourlyPrecipIn,Conditions,Clouds,dailyrainin,SoftwareType,DateUTC
2013-06-26 03:12:00,47.0,23.0,30.64,SSE,152,6.0,9.0,38,0.00,,,0.00,,2013-06-26 10:12:00,
2013-06-26 03:22:00,47.0,23.0,30.64,SE,142,4.0,9.0,38,0.00,,,0.00,,2013-06-26 10:22:00,
2013-06-26 03:33:00,47.0,23.0,30.64,South,169,5.0,9.0,39,0.00,,,0.00,,2013-06-26 10:33:00,
2013-06-26 03:43:00,46.0,22.0,30.64,SSE,167,6.0,9.0,39,0.00,,,0.00,,2013-06-26 10:43:00,
2013-06-26 03:53:00,46.0,20.0,30.64,South,172,6.0,10.0,35,0.00,,,0.00,,2013-06-26 10:53:00,
2013-06-26 04:02:00,47.0,17.0,30.64,South,180,6.0,10.0,30,0.00,,,0.00,,2013-06-26 11:02:00,
2013-06-26 04:11:00,47.0,17.0,30.65,SSE,161,5.0,9.0,30,0.00,,,0.00,,2013-06-26 11:11:00,
2013-06-26 04:22:00,47.0,17.0,30.65,South,179,5.0,8.0,30,0.00,,,0.00,,2013-06-26 11:22:00,
2013-06-26 04:32:00,47.0,13.0,30.65,South,178,4.0,10.0,25,0.00,,,0.00,,2013-06-26 11:32:00,
2013-06-26 04:43:00,47.0,11.0,30.66,South,180,5.0,8.0,23,0.00,,,0.00,,2013-06-26 11:43:00,
2013-06-26 04:52:00,47.0,14.0,30.66,SE,146,1.0,6.0,26,0.00,,,0.00,,2013-06-26 11:52:00,
2013-06-26 05:02:00,46.0,13.0,30.66,South,175,2.0,7.0,26,0.00,,,0.00,,2013-06-26 12:02:00,
2013-06-26 05:11:00,46.0,14.0,30.67,SW,224,1.0,7.0,27,0.00,,,0.00,,2013-06-26 12:11:00,
2013-06-26 05:22:00,46.0,15.0,30.67,North,0,0.0,8.0,28,0.00,,,0.00,,2013-06-26 12:22:00,
2013-06-26 06:02:00,46.0,15.0,30.66,SSW,193,4.0,10.0,28,0.00,,,0.00,,2013-06-26 13:02:00,
2013-06-26 06:34:00,46.0,15.0,30.66,South,187,2.0,10.0,28,0.00,,,0.00,,2013-06-26 13:34:00,
2013-06-26 06:42:00,46.0,11.0,30.67,West,281,3.0,8.0,24,0.00,,,0.00,,2013-06-26 13:42:00,
2013-06-26 06:53:00,46.0,11.0,30.67,SW,229,3.0,7.0,24,0.00,,,0.00,,2013-06-26 13:53:00,
2013-06-26 07:02:00,47.0,12.0,30.67,West,278,2.0,8.0,24,0.00,,,0.00,,2013-06-26 14:02:00,
2013-06-26 07:11:00,47.0,11.0,30.68,WSW,250,1.0,4.0,23,0.00,,,0.00,,2013-06-26 14:11:00,
2013-06-26 07:33:00,47.0,11.0,30.70,North,0,0.0,10.0,23,0.00,,,0.00,,2013-06-26 14:33:00,
2013-06-26 07:42:00,48.0,12.0,30.69,WNW,287,1.0,7.0,23,0.00,,,0.00,,2013-06-26 14:42:00,
2013-06-26 07:52:00,48.0,12.0,30.69,SW,222,2.0,4.0,23,0.00,,,0.00,,2013-06-26 14:52:00,
2013-06-26 08:02:00,48.0,11.0,30.69,WNW,292,2.0,4.0,22,0.00,,,0.00,,2013-06-26 15:02:00,
2013-06-26 08:11:00,49.0,13.0,30.69,West,280,2.0,4.0,23,0.00,,,0.00,,2013-06-26 15:11:00,
2013-06-26 08:33:00,50.0,14.0,30.70,NNW,331,2.0,4.0,23,0.00,,,0.00,,2013-06-26 15:33:00,
2013-06-26 08:43:00,50.0,16.0,30.70,NW,314,3.0,5.0,25,0.00,,,0.00,,2013-06-26 15:43:00,
2013-06-26 08:53:00,50.0,16.0,30.70,West,272,3.0,4.0,26,0.00,,,0.00,,2013-06-26 15:53:00,
2013-06-26 09:01:00,51.0,20.0,30.69,NNW,334,1.0,5.0,29,0.00,,,0.00,,2013-06-26 16:01:00,
2013-06-26 09:11:00,52.0,19.0,30.69,West,280,2.0,5.0,27,0.00,,,0.00,,2013-06-26 16:11:00,
2013-06-26 09:22:00,52.0,22.0,30.71,NW,326,1.0,4.0,31,0.00,,,0.00,,2013-06-26 16:22:00,
2013-06-26 09:34:00,52.0,22.0,30.71,NW,326,1.0,4.0,31,0.00,,,0.00,,2013-06-26 16:34:00,
2013-06-26 09:43:00,54.0,23.0,30.71,South,186,1.0,4.0,30,0.00,,,0.00,,2013-06-26 16:43:00,
2013-06-26 09:52:00,53.0,20.0,30.71,South,180,3.0,6.0,27,0.00,,,0.00,,2013-06-26 16:52:00,
2013-06-26 10:01:00,54.0,21.0,30.71,SSW,212,2.0,7.0,27,0.00,,,0.00,,2013-06-26 17:01:00,
2013-06-26 10:11:00,54.0,21.0,30.71,South,186,3.0,6.0,27,0.00,,,0.00,,2013-06-26 17:11:00,
2013-06-26 10:33:00,55.0,22.0,30.73,SSW,206,2.0,5.0,27,0.00,,,0.00,,2013-06-26 17:33:00,
2013-06-26 10:43:00,56.0,25.0,30.73,WSW,244,3.0,7.0,30,0.00,,,0.00,,2013-06-26 17:43:00,
2013-06-26 10:52:00,56.0,24.0,30.73,SW,232,2.0,7.0,29,0.00,,,0.00,,2013-06-26 17:52:00,
2013-06-26 11:01:00,57.0,23.0,30.73,SW,229,2.0,7.0,27,0.00,,,0.00,,2013-06-26 18:01:00,
2013-06-26 11:11:00,58.0,24.0,30.73,SW,216,3.0,5.0,27,0.00,,,0.00,,2013-06-26 18:11:00,
2013-06-26 11:34:00,58.0,24.0,30.73,SSW,212,2.0,7.0,27,0.00,,,0.00,,2013-06-26 18:34:00,
2013-06-26 11:42:00,58.0,25.0,30.73,SSW,213,2.0,7.0,28,0.00,,,0.00,,2013-06-26 18:42:00,
2013-06-26 11:52:00,59.0,25.0,30.73,SW,222,4.0,9.0,27,0.00,,,0.00,,2013-06-26 18:52:00,
2013-06-26 12:01:00,60.0,26.0,30.73,West,264,4.0,7.0,27,0.00,,,0.00,,2013-06-26 19:01:00,
2013-06-26 12:11:00,61.0,25.0,30.75,SSW,203,3.0,11.0,25,0.00,,,0.00,,2013-06-26 19:11:00,
2013-06-26 12:22:00,61.0,26.0,30.75,WSW,239,4.0,8.0,26,0.00,,,0.00,,2013-06-26 19:22:00,
2013-06-26 12:32:00,62.0,25.0,30.75,SSW,203,4.0,11.0,24,0.00,,,0.00,,2013-06-26 19:32:00,
2013-06-26 12:52:00,61.0,26.0,30.74,SSW,211,3.0,15.0,26,0.00,,,0.00,,2013-06-26 19:52:00,
2013-06-26 13:01:00,64.0,26.0,30.74,WSW,252,3.0,10.0,24,0.00,,,0.00,,2013-06-26 20:01:00,
2013-06-26 13:12:00,64.0,25.0,30.76,WSW,255,4.0,9.0,23,0.00,,,0.00,,2013-06-26 20:12:00,
2013-06-26 13:22:00,63.0,27.0,30.76,SW,235,4.0,9.0,25,0.00,,,0.00,,2013-06-26 20:22:00,
2013-06-26 13:33:00,64.0,26.0,30.76,SW,231,6.0,13.0,24,0.00,,,0.00,,2013-06-26 20:33:00,
2013-06-26 13:43:00,63.0,27.0,30.75,West,262,4.0,13.0,25,0.00,,,0.00,,2013-06-26 20:43:00,
2013-06-26 13:52:00,65.0,27.0,30.75,West,267,5.0,12.0,24,0.00,,,0.00,,2013-06-26 20:52:00,
2013-06-26 14:01:00,62.0,25.0,30.75,WNW,284,7.0,13.0,24,0.00,,,0.00,,2013-06-26 21:01:00,
2013-06-26 14:11:00,65.0,27.0,30.75,West,267,5.0,12.0,24,0.00,,,0.00,,2013-06-26 21:11:00,
2013-06-26 14:23:00,64.0,24.0,30.75,West,274,9.0,16.0,22,0.00,,,0.00,,2013-06-26 21:23:00,
2013-06-26 14:33:00,65.0,29.0,30.75,West,270,4.0,12.0,26,0.00,,,0.00,,2013-06-26 21:33:00,
2013-06-26 14:42:00,65.0,26.0,30.74,SW,218,4.0,12.0,23,0.00,,,0.00,,2013-06-26 21:42:00,
2013-06-26 14:52:00,66.0,27.0,30.74,WSW,254,4.0,10.0,23,0.00,,,0.00,,2013-06-26 21:52:00,
2013-06-26 15:01:00,66.0,26.0,30.74,WSW,240,6.0,13.0,22,0.00,,,0.00,,2013-06-26 22:01:00,
2013-06-26 15:11:00,65.0,26.0,30.76,West,274,4.0,14.0,23,0.00,,,0.00,,2013-06-26 22:11:00,
2013-06-26 15:33:00,64.0,25.0,30.75,SW,220,6.0,11.0,23,0.00,,,0.00,,2013-06-26 22:33:00,
2013-06-26 15:43:00,65.0,26.0,30.75,SSW,210,4.0,11.0,23,0.00,,,0.00,,2013-06-26 22:43:00,
2013-06-26 15:52:00,65.0,26.0,30.74,WSW,241,6.0,13.0,23,0.00,,,0.00,,2013-06-26 22:52:00,
2013-06-26 16:01:00,63.0,27.0,30.74,SSW,197,6.0,17.0,25,0.00,,,0.00,,2013-06-26 23:01:00,
2013-06-26 16:11:00,63.0,26.0,30.74,SSW,202,6.0,13.0,24,0.00,,,0.00,,2013-06-26 23:11:00,
2013-06-26 16:22:00,65.0,27.0,30.74,SW,233,4.0,14.0,24,0.00,,,0.00,,2013-06-26 23:22:00,
2013-06-26 16:33:00,64.0,24.0,30.74,SW,222,4.0,15.0,22,0.00,,,0.00,,2013-06-26 23:33:00,
2013-06-26 16:43:00,65.0,26.0,30.74,West,262,7.0,13.0,23,0.00,,,0.00,,2013-06-26 23:43:00,
2013-06-26 16:52:00,64.0,25.0,30.74,West,275,7.0,13.0,23,0.00,,,0.00,,2013-06-26 23:52:00,
2013-06-26 17:01:00,65.0,28.0,30.74,SW,226,3.0,9.0,25,0.00,,,0.00,,2013-06-27 00:01:00,
2013-06-26 17:11:00,64.0,25.0,30.74,SSW,204,5.0,9.0,23,0.00,,,0.00,,2013-06-27 00:11:00,
2013-06-26 17:33:00,63.0,26.0,30.73,WSW,247,6.0,12.0,24,0.00,,,0.00,,2013-06-27 00:33:00,
2013-06-26 17:42:00,63.0,26.0,30.73,West,261,5.0,12.0,24,0.00,,,0.00,,2013-06-27 00:42:00,
2013-06-26 17:53:00,63.0,25.0,30.73,SW,233,4.0,12.0,23,0.00,,,0.00,,2013-06-27 00:53:00,
2013-06-26 18:01:00,63.0,25.0,30.73,SW,233,4.0,12.0,23,0.00,,,0.00,,2013-06-27 01:01:00,
2013-06-26 18:11:00,63.0,25.0,30.73,SW,233,4.0,12.0,23,0.00,,,0.00,,2013-06-27 01:11:00,
2013-06-26 18:21:00,63.0,27.0,30.73,WSW,251,6.0,15.0,25,0.00,,,0.00,,2013-06-27 01:21:00,
2013-06-26 18:32:00,61.0,25.0,30.73,WSW,239,5.0,11.0,25,0.00,,,0.00,,2013-06-27 01:32:00,
2013-06-26 18:42:00,60.0,25.0,30.73,WSW,257,5.0,12.0,26,0.00,,,0.00,,2013-06-27 01:42:00,
2013-06-26 18:53:00,61.0,25.0,30.73,SW,224,4.0,12.0,25,0.00,,,0.00,,2013-06-27 01:53:00,
2013-06-26 19:01:00,61.0,25.0,30.73,SW,220,4.0,11.0,25,0.00,,,0.00,,2013-06-27 02:01:00,
2013-06-26 19:11:00,60.0,25.0,30.73,WSW,244,4.0,11.0,26,0.00,,,0.00,,2013-06-27 02:11:00,
2013-06-26 19:22:00,61.0,26.0,30.73,WSW,241,3.0,10.0,26,0.00,,,0.00,,2013-06-27 02:22:00,
2013-06-26 19:32:00,60.0,25.0,30.73,WSW,254,5.0,11.0,26,0.00,,,0.00,,2013-06-27 02:32:00,
2013-06-26 19:42:00,60.0,25.0,30.73,SW,225,4.0,11.0,26,0.00,,,0.00,,2013-06-27 02:42:00,
2013-06-26 19:51:00,57.0,23.0,30.74,SW,225,5.0,10.0,27,0.00,,,0.00,,2013-06-27 02:51:00,
2013-06-26 20:01:00,56.0,23.0,30.74,SW,221,3.0,10.0,27,0.00,,,0.00,,2013-06-27 03:01:00,
2013-06-26 20:11:00,55.0,22.0,30.74,WSW,240,3.0,7.0,27,0.00,,,0.00,,2013-06-27 03:11:00,
2013-06-26 20:21:00,55.0,22.0,30.74,WSW,245,5.0,9.0,27,0.00,,,0.00,,2013-06-27 03:21:00,
2013-06-26 20:32:00,54.0,20.0,30.74,SW,226,3.0,9.0,26,-99.99,,,-99.99,,2013-06-27 03:32:00,
2013-06-26 20:42:00,54.0,20.0,30.74,SW,226,3.0,9.0,26,0.00,,,0.00,,2013-06-27 03:42:00,
2013-06-26 20:51:00,54.0,19.0,30.74,SW,220,4.0,8.0,25,0.00,,,0.00,,2013-06-27 03:51:00,
2013-06-26 21:01:00,54.0,19.0,30.74,SW,220,4.0,8.0,25,0.00,,,0.00,,2013-06-27 04:01:00,
2013-06-26 21:11:00,54.0,19.0,30.74,SW,220,4.0,8.0,25,0.00,,,0.00,,2013-06-27 04:11:00,
2013-06-26 21:32:00,53.0,17.0,30.74,SSW,197,2.0,5.0,24,0.00,,,0.00,,2013-06-27 04:32:00,
2013-06-26 21:42:00,53.0,19.0,30.76,NNW,327,3.0,6.0,26,0.00,,,0.00,,2013-06-27 04:42:00,
2013-06-26 21:52:00,53.0,22.0,30.76,NNW,327,2.0,6.0,29,0.00,,,0.00,,2013-06-27 04:52:00,
2013-06-26 22:02:00,53.0,21.0,30.76,NE,35,1.0,6.0,28,0.00,,,0.00,,2013-06-27 05:02:00,
2013-06-26 22:11:00,53.0,21.0,30.75,NNW,345,4.0,7.0,28,0.00,,,0.00,,2013-06-27 05:11:00,
2013-06-26 22:21:00,53.0,22.0,30.76,NNW,347,4.0,6.0,29,0.00,,,0.00,,2013-06-27 05:21:00,
2013-06-26 22:32:00,52.0,22.0,30.77,North,355,6.0,8.0,30,0.00,,,0.00,,2013-06-27 05:32:00,
2013-06-26 22:42:00,53.0,23.0,30.77,NNE,30,6.0,8.0,31,0.00,,,0.00,,2013-06-27 05:42:00,
2013-06-26 22:53:00,53.0,22.0,30.78,NNE,28,6.0,9.0,30,0.00,,,0.00,,2013-06-27 05:53:00,
2013-06-26 23:01:00,54.0,24.0,30.78,NNE,12,6.0,8.0,31,0.00,,,0.00,,2013-06-27 06:01:00,
2013-06-26 23:12:00,54.0,23.0,30.78,NNE,25,5.0,8.0,30,0.00,,,0.00,,2013-06-27 06:12:00,
2013-06-26 23:22:00,54.0,24.0,30.77,NNE,23,5.0,8.0,31,0.00,,,0.00,,2013-06-27 06:22:00,
2013-06-26 23:34:00,54.0,24.0,30.78,ENE,57,4.0,8.0,31,0.00,,,0.00,,2013-06-27 06:34:00,
2013-06-26 23:43:00,56.0,24.0,30.77,NE,55,3.0,9.0,29,0.00,,,0.00,,2013-06-27 06:43:00,